New Orleans, Louisiana
Traffic Map
Current Weather Conditions
New Orleans, Louisiana
Clear
Clear
84°
Feels Like: 94°
Wind Chill: 84° Ceiling: Unl
Heat Index: 94° Visibility: 10mi
Dew Point: 77° Wind: 0mph
Humidity: 79% Direction: ° ()
Pressure: 29.99in Gusts: 0mph
Raw Report DataKNEW 230453Z 00000KT 10SM CLR 29/25 A2999 RMK AO2 SLP149 T02890250
Traffic Incident Summary
Active as of:
Severity:
Category:
InformationThere was an issue retrieving the traffic information for this location. Please try a different location or try again shortly.
Advertisements